createdAt,value
2023-03-31T00:04:53.750Z,0
2023-03-31T00:11:16.773Z,0
2023-03-31T00:17:36.834Z,0
2023-03-31T00:23:59.826Z,0
2023-03-31T00:30:19.741Z,0
2023-03-31T00:36:42.880Z,0
2023-03-31T00:43:02.906Z,0
2023-03-31T00:49:25.740Z,0
2023-03-31T00:55:45.763Z,0
2023-03-31T01:02:08.815Z,0
2023-03-31T01:08:28.857Z,0
2023-03-31T01:14:51.766Z,0
2023-03-31T01:21:11.781Z,0
2023-03-31T01:27:34.784Z,0
2023-03-31T01:33:54.871Z,0
2023-03-31T01:40:17.771Z,0
2023-03-31T01:46:37.760Z,0
2023-03-31T01:53:00.823Z,0
2023-03-31T01:59:20.757Z,0
2023-03-31T02:05:43.768Z,0
2023-03-31T02:12:03.814Z,0
2023-03-31T02:18:26.949Z,0
2023-03-31T02:24:46.767Z,0
2023-03-31T02:31:09.840Z,0
2023-03-31T02:37:29.822Z,0
2023-03-31T02:43:52.854Z,0
2023-03-31T02:50:12.810Z,0
2023-03-31T02:56:35.784Z,0
2023-03-31T03:02:55.823Z,0
2023-03-31T03:09:18.791Z,0
2023-03-31T03:15:38.778Z,0
2023-03-31T03:22:01.833Z,0
2023-03-31T03:28:21.842Z,0
2023-03-31T03:34:44.765Z,0
2023-03-31T03:41:04.755Z,0
2023-03-31T03:47:27.887Z,0
2023-03-31T03:53:47.772Z,0
2023-03-31T04:00:10.790Z,0
2023-03-31T04:06:30.832Z,0
2023-03-31T04:12:53.747Z,0
2023-03-31T04:29:00.626Z,0
2023-03-31T04:35:20.733Z,0
2023-03-31T04:41:43.787Z,0
2023-03-31T04:48:03.775Z,0
2023-03-31T04:54:26.792Z,0
2023-03-31T05:00:46.784Z,0
2023-03-31T05:07:09.794Z,0
2023-03-31T05:13:29.816Z,0
2023-03-31T05:19:52.765Z,0
2023-03-31T05:26:12.829Z,0
2023-03-31T05:32:35.852Z,0
2023-03-31T05:38:55.807Z,0
2023-03-31T05:45:18.834Z,0
2023-03-31T05:51:38.734Z,0
2023-03-31T05:58:01.809Z,0
2023-03-31T06:04:21.888Z,0
2023-03-31T06:10:44.807Z,0
2023-03-31T06:17:04.847Z,0
2023-03-31T06:23:27.797Z,0
2023-03-31T06:29:47.816Z,0
2023-03-31T06:36:10.833Z,11.25
2023-03-31T06:42:30.795Z,11.25
2023-03-31T06:48:53.843Z,11.25
2023-03-31T06:55:13.811Z,11.25
2023-03-31T07:01:36.892Z,16.88
2023-03-31T07:07:56.811Z,22.5
2023-03-31T07:14:19.844Z,33.75
2023-03-31T07:20:39.835Z,56.25
2023-03-31T07:27:02.754Z,39.38
2023-03-31T07:33:22.817Z,39.38
2023-03-31T07:39:45.778Z,45
2023-03-31T07:46:06.288Z,50.62
2023-03-31T07:52:28.883Z,67.5
2023-03-31T07:58:48.879Z,61.88
2023-03-31T08:05:11.789Z,56.25
2023-03-31T08:11:31.749Z,56.25
2023-03-31T08:17:54.888Z,56.25
2023-03-31T08:24:14.852Z,73.12
2023-03-31T08:30:37.763Z,67.5
2023-03-31T08:36:57.810Z,39.38
2023-03-31T08:43:20.800Z,50.62
2023-03-31T08:49:40.855Z,61.88
2023-03-31T08:56:04.009Z,78.75
2023-03-31T09:02:23.881Z,84.38
2023-03-31T09:08:46.826Z,56.25
2023-03-31T09:15:06.796Z,78.75
2023-03-31T09:21:29.811Z,73.12
2023-03-31T09:38:13.681Z,73.12
2023-03-31T09:44:36.744Z,78.75
2023-03-31T09:50:56.737Z,90
2023-03-31T09:57:19.825Z,90
2023-03-31T10:03:39.771Z,90
2023-03-31T10:10:02.792Z,78.75
2023-03-31T10:16:22.827Z,45
2023-03-31T10:22:45.778Z,33.75
2023-03-31T10:29:05.777Z,78.75
2023-03-31T10:35:28.843Z,67.5
2023-03-31T10:41:48.745Z,84.38
2023-03-31T10:48:11.813Z,50.62
2023-03-31T10:54:31.890Z,16.88
2023-03-31T11:00:54.971Z,45
2023-03-31T11:07:14.754Z,50.62
2023-03-31T11:13:38.076Z,73.12
2023-03-31T11:19:58.088Z,67.5
2023-03-31T11:26:20.729Z,50.62
2023-03-31T11:32:40.816Z,84.38
2023-03-31T11:39:03.751Z,95.62
2023-03-31T11:45:24.900Z,84.38
2023-03-31T11:51:47.800Z,73.12
2023-03-31T11:58:07.759Z,45
2023-03-31T12:04:30.813Z,22.5
2023-03-31T12:10:51.364Z,45
2023-03-31T12:17:15.034Z,33.75
2023-03-31T12:23:34.811Z,61.88
2023-03-31T12:29:57.779Z,61.88
2023-03-31T12:36:17.822Z,67.5
2023-03-31T12:42:40.787Z,73.12
2023-03-31T12:49:00.977Z,73.12
2023-03-31T12:55:23.790Z,78.75
2023-03-31T13:01:43.801Z,78.75
2023-03-31T13:08:06.815Z,56.25
2023-03-31T13:14:26.799Z,39.38
2023-03-31T13:20:49.822Z,39.38
2023-03-31T13:27:09.780Z,11.25
2023-03-31T13:33:34.910Z,45
2023-03-31T13:39:55.038Z,61.88
2023-03-31T13:46:18.059Z,61.88
2023-03-31T13:52:37.754Z,78.75
2023-03-31T13:59:00.895Z,67.5
2023-03-31T14:05:20.802Z,61.88
2023-03-31T14:11:43.771Z,56.25
2023-03-31T14:18:03.801Z,33.75
2023-03-31T14:24:26.829Z,28.12
2023-03-31T14:30:46.768Z,16.88
2023-03-31T14:37:09.863Z,45
2023-03-31T14:53:34.722Z,67.5
2023-03-31T14:59:54.746Z,28.12
2023-03-31T15:06:17.900Z,28.12
2023-03-31T15:12:37.802Z,28.12
2023-03-31T15:19:00.765Z,16.88
2023-03-31T15:25:22.453Z,16.88
2023-03-31T15:31:43.817Z,11.25
2023-03-31T15:38:03.800Z,16.88
2023-03-31T15:44:26.736Z,11.25
2023-03-31T15:50:46.769Z,11.25
2023-03-31T15:57:09.888Z,11.25
2023-03-31T16:03:29.784Z,11.25
2023-03-31T16:09:52.806Z,5.62
2023-03-31T16:16:12.777Z,5.62
2023-03-31T16:22:35.765Z,5.62
2023-03-31T16:28:55.814Z,11.25
2023-03-31T16:35:18.743Z,5.62
2023-03-31T16:41:38.824Z,5.62
2023-03-31T16:48:09.056Z,5.62
2023-03-31T16:54:21.823Z,11.25
2023-03-31T17:00:45.075Z,5.62
2023-03-31T17:07:04.779Z,5.62
2023-03-31T17:13:27.817Z,5.62
2023-03-31T17:19:47.790Z,5.62
2023-03-31T17:26:10.891Z,5.62
2023-03-31T17:32:30.922Z,0
2023-03-31T17:38:53.907Z,0
2023-03-31T17:45:13.830Z,0
2023-03-31T17:51:36.762Z,0
2023-03-31T17:57:56.808Z,0
2023-03-31T18:04:19.802Z,0
2023-03-31T18:10:41.183Z,0
2023-03-31T18:17:02.779Z,0
2023-03-31T18:23:22.879Z,0
2023-03-31T18:29:45.758Z,0
2023-03-31T18:36:06.013Z,0
2023-03-31T18:42:28.833Z,0
2023-03-31T18:48:48.785Z,0
2023-03-31T18:55:11.824Z,0
2023-03-31T19:01:31.873Z,0
2023-03-31T19:07:54.747Z,0
2023-03-31T19:14:14.838Z,0
2023-03-31T19:20:37.769Z,0
2023-03-31T19:26:57.839Z,0
2023-03-31T19:33:20.797Z,0
2023-03-31T19:39:40.814Z,0
2023-03-31T19:46:03.806Z,0
2023-03-31T20:01:36.168Z,0
2023-03-31T20:07:55.718Z,0
2023-03-31T20:14:18.759Z,0
2023-03-31T20:20:38.865Z,0
2023-03-31T20:27:01.750Z,0
2023-03-31T20:33:21.795Z,0
2023-03-31T20:39:44.755Z,0
2023-03-31T20:46:04.742Z,0
2023-03-31T20:52:27.803Z,0
2023-03-31T20:58:47.794Z,0
2023-03-31T21:05:10.772Z,0
2023-03-31T21:11:30.767Z,0
2023-03-31T21:17:53.833Z,0
2023-03-31T21:24:13.812Z,0
2023-03-31T21:30:36.737Z,0
2023-03-31T21:36:56.793Z,0
2023-03-31T21:43:19.778Z,0
2023-03-31T21:49:39.765Z,0
2023-03-31T21:56:02.790Z,0
2023-03-31T22:02:22.732Z,0
2023-03-31T22:08:45.803Z,0
2023-03-31T22:15:05.803Z,0
2023-03-31T22:21:28.814Z,0
2023-03-31T22:27:48.729Z,0
2023-03-31T22:34:11.818Z,0
2023-03-31T22:40:31.818Z,0
2023-03-31T22:46:54.793Z,0
2023-03-31T22:53:14.810Z,0
2023-03-31T22:59:37.850Z,0
2023-03-31T23:22:34.749Z,0
2023-03-31T23:28:54.769Z,0
2023-03-31T23:35:17.765Z,0
2023-03-31T23:41:37.828Z,0
2023-03-31T23:48:00.795Z,0
2023-03-31T23:54:20.748Z,0
